Airport View

Enter ICAO identifier to see the current METAR for that AWOS.

KFNL for example

KSDY 290415Z AUTO 00000KT 10SM CLR 19/11 A3022 RMK AO1

29 Jul 2014 04:36

Frequency: 119.275

Phone: 406-482-7323

Other Area AWOS: KISN - KS25 - KGDV - KPO1

TAF KSDY 282320Z 2900/2924 VRB06KT P6SM FEW210 FM291200 00000KT P6SM FEW210 FM292100 VRB06KT P6SM FEW100 AMD LTD TO CLD VIS AND WIND